createdAt,value
2018-03-04T00:00:41.585Z,91.40
2018-03-04T00:01:41.605Z,88.00
2018-03-04T00:02:41.597Z,82.70
2018-03-04T00:03:41.633Z,78.70
2018-03-04T00:04:41.689Z,87.60
2018-03-04T00:05:41.631Z,83.40
2018-03-04T00:06:41.687Z,84.30
2018-03-04T00:07:41.653Z,86.40
2018-03-04T00:08:41.676Z,87.30
2018-03-04T00:09:41.696Z,82.90
2018-03-04T00:10:41.705Z,86.50
2018-03-04T00:11:41.700Z,90.80
2018-03-04T00:12:41.706Z,91.60
2018-03-04T00:13:41.723Z,89.30
2018-03-04T00:14:41.727Z,89.60
2018-03-04T00:15:41.764Z,86.30
2018-03-04T00:16:41.765Z,83.80
2018-03-04T00:17:41.774Z,90.50
2018-03-04T00:18:41.775Z,89.20
2018-03-04T00:19:41.806Z,91.20
2018-03-04T00:20:41.816Z,90.30
2018-03-04T00:21:41.830Z,94.90
2018-03-04T00:22:41.845Z,88.10
2018-03-04T00:23:41.844Z,90.60
2018-03-04T00:24:41.861Z,91.20
2018-03-04T00:25:41.848Z,85.70
2018-03-04T00:26:41.868Z,87.70
2018-03-04T00:27:41.914Z,85.00
2018-03-04T00:28:41.947Z,90.50
2018-03-04T00:29:41.902Z,90.00
2018-03-04T00:30:41.947Z,90.90
2018-03-04T00:31:41.926Z,89.80
2018-03-04T00:32:41.968Z,89.50
2018-03-04T00:33:41.971Z,91.70
2018-03-04T00:34:41.956Z,89.70
2018-03-04T00:35:41.988Z,93.00
2018-03-04T00:36:41.967Z,95.20
2018-03-04T00:37:42.047Z,97.60
2018-03-04T00:38:42.019Z,97.50
2018-03-04T00:39:42.007Z,92.10
2018-03-04T00:40:42.033Z,107.70
2018-03-04T00:41:42.050Z,117.30
2018-03-04T00:42:42.057Z,116.00
2018-03-04T00:43:42.117Z,115.70
2018-03-04T00:44:42.078Z,105.80
2018-03-04T00:45:42.096Z,101.00
2018-03-04T00:46:42.083Z,96.10
2018-03-04T00:47:42.092Z,89.80
2018-03-04T00:48:42.106Z,92.20
2018-03-04T00:49:42.111Z,93.00
2018-03-04T00:50:42.152Z,93.60
2018-03-04T00:51:42.149Z,83.70
2018-03-04T00:52:42.151Z,86.10
2018-03-04T00:53:42.171Z,82.90
2018-03-04T00:54:42.171Z,84.50
2018-03-04T00:55:42.221Z,88.30
2018-03-04T00:56:42.229Z,93.70
2018-03-04T00:57:42.227Z,82.70
2018-03-04T00:58:42.222Z,89.50
2018-03-04T00:59:42.227Z,85.70
2018-03-04T01:00:42.257Z,83.70
2018-03-04T01:01:42.257Z,81.10
2018-03-04T01:02:42.290Z,88.40
2018-03-04T01:03:42.272Z,88.90
2018-03-04T01:04:42.299Z,88.50
2018-03-04T01:05:42.324Z,88.10
2018-03-04T01:06:42.309Z,88.30
2018-03-04T01:07:42.329Z,92.00
2018-03-04T01:08:42.329Z,86.50
2018-03-04T01:09:42.330Z,94.00
2018-03-04T01:10:42.374Z,94.90
2018-03-04T01:11:42.383Z,94.80
2018-03-04T01:12:42.369Z,86.60
2018-03-04T01:13:42.389Z,90.90
2018-03-04T01:14:42.387Z,97.30
2018-03-04T01:15:42.400Z,89.40
2018-03-04T01:16:42.416Z,91.00
2018-03-04T01:17:42.436Z,88.40
2018-03-04T01:18:42.438Z,89.00
2018-03-04T01:19:42.458Z,91.30
2018-03-04T01:20:42.468Z,90.60
2018-03-04T01:21:42.539Z,89.90
2018-03-04T01:22:42.512Z,91.60
2018-03-04T01:23:42.490Z,92.60
2018-03-04T01:24:42.553Z,85.80
2018-03-04T01:25:42.512Z,93.30
2018-03-04T01:26:42.515Z,92.10
2018-03-04T01:27:42.528Z,91.70
2018-03-04T01:28:42.546Z,91.50
2018-03-04T01:29:42.547Z,96.00
2018-03-04T01:30:42.577Z,95.30
2018-03-04T01:31:42.577Z,91.10
2018-03-04T01:32:42.588Z,91.70
2018-03-04T01:33:42.600Z,92.90
2018-03-04T01:34:42.607Z,91.00
2018-03-04T01:35:42.611Z,90.10
2018-03-04T01:36:42.627Z,89.40
2018-03-04T01:37:42.656Z,89.80
2018-03-04T01:38:42.643Z,94.50
2018-03-04T01:39:42.659Z,90.80
2018-03-04T01:40:42.684Z,92.40
2018-03-04T01:41:42.688Z,97.10
2018-03-04T01:42:42.693Z,89.30
2018-03-04T01:43:42.708Z,94.60
2018-03-04T01:44:42.738Z,89.90
2018-03-04T01:45:42.719Z,89.70
2018-03-04T01:46:42.736Z,97.40
2018-03-04T01:47:42.781Z,88.00
2018-03-04T01:48:42.758Z,91.70
2018-03-04T01:49:42.771Z,90.70
2018-03-04T01:50:42.773Z,93.30
2018-03-04T01:51:42.801Z,94.80
2018-03-04T01:52:42.793Z,90.70
2018-03-04T01:53:42.811Z,93.10
2018-03-04T01:54:42.819Z,90.10
2018-03-04T01:55:42.831Z,96.50
2018-03-04T01:56:42.844Z,96.00
2018-03-04T01:57:42.865Z,104.90
2018-03-04T01:58:42.878Z,93.60
2018-03-04T01:59:42.869Z,95.90
2018-03-04T02:00:42.935Z,97.70
2018-03-04T02:01:42.899Z,101.20
2018-03-04T02:02:42.914Z,107.60
2018-03-04T02:03:42.919Z,105.10
2018-03-04T02:04:42.927Z,95.40
2018-03-04T02:05:42.937Z,93.30
2018-03-04T02:06:42.947Z,90.20
2018-03-04T02:07:42.978Z,98.00
2018-03-04T02:08:42.978Z,97.70
2018-03-04T02:09:42.982Z,94.00
2018-03-04T02:10:43.003Z,89.10
2018-03-04T02:11:43.003Z,94.70
2018-03-04T02:12:43.019Z,91.00
2018-03-04T02:13:43.029Z,89.60
2018-03-04T02:14:43.044Z,95.30
2018-03-04T02:15:43.070Z,92.50
2018-03-04T02:16:43.056Z,89.40
2018-03-04T02:17:43.069Z,87.80
2018-03-04T02:18:43.082Z,86.40
2018-03-04T02:19:43.102Z,89.20
2018-03-04T02:20:43.105Z,89.10
2018-03-04T02:21:43.112Z,89.00
2018-03-04T02:22:43.130Z,152.70
2018-03-04T02:23:43.131Z,87.00
2018-03-04T02:24:43.144Z,89.00
2018-03-04T02:25:43.157Z,90.60
2018-03-04T02:26:43.164Z,97.40
2018-03-04T02:27:43.189Z,117.50
2018-03-04T02:28:43.206Z,81.30
2018-03-04T02:29:43.208Z,92.40
2018-03-04T02:30:43.224Z,92.00
2018-03-04T02:31:43.224Z,85.10
2018-03-04T02:32:43.230Z,84.30
2018-03-04T02:33:43.244Z,88.20
2018-03-04T02:34:43.267Z,88.60
2018-03-04T02:35:43.266Z,89.60
2018-03-04T02:36:43.287Z,96.00
2018-03-04T02:37:43.293Z,92.60
2018-03-04T02:38:43.292Z,87.60
2018-03-04T02:39:43.316Z,93.90
2018-03-04T02:40:43.368Z,89.70
2018-03-04T02:41:43.329Z,94.20
2018-03-04T02:42:43.336Z,91.80
2018-03-04T02:43:43.352Z,91.60
2018-03-04T02:44:43.360Z,96.70
2018-03-04T02:45:43.384Z,92.40
2018-03-04T02:46:43.395Z,90.60
2018-03-04T02:47:43.401Z,88.20
2018-03-04T02:48:43.402Z,96.10
2018-03-04T02:49:43.414Z,89.60
2018-03-04T02:50:43.440Z,92.20
2018-03-04T02:51:43.438Z,90.10
2018-03-04T02:52:43.455Z,95.40
2018-03-04T02:53:43.463Z,102.30
2018-03-04T02:54:43.476Z,106.50
2018-03-04T02:55:43.479Z,96.20
2018-03-04T02:56:43.488Z,90.90
2018-03-04T02:57:43.500Z,90.70
2018-03-04T02:58:43.511Z,90.70
2018-03-04T02:59:43.517Z,93.10
2018-03-04T03:00:43.562Z,93.10
2018-03-04T03:01:43.562Z,92.60
2018-03-04T03:02:43.549Z,92.80
2018-03-04T03:03:43.566Z,98.10
2018-03-04T03:04:43.573Z,92.30
2018-03-04T03:05:43.590Z,86.50
2018-03-04T03:06:43.601Z,91.80
2018-03-04T03:07:43.599Z,98.40
2018-03-04T03:08:43.622Z,97.60
2018-03-04T03:09:43.626Z,92.20
2018-03-04T03:10:43.636Z,94.90
2018-03-04T03:11:43.642Z,92.10
2018-03-04T03:12:43.667Z,91.00
2018-03-04T03:13:43.693Z,97.70
2018-03-04T03:14:43.679Z,88.50
2018-03-04T03:15:43.693Z,96.20
2018-03-04T03:16:43.709Z,93.00
2018-03-04T03:17:43.713Z,88.00
2018-03-04T03:18:43.724Z,94.90
2018-03-04T03:19:43.734Z,98.10
2018-03-04T03:20:43.745Z,87.50
2018-03-04T03:21:43.761Z,97.10
2018-03-04T03:22:43.761Z,96.50
2018-03-04T03:23:43.791Z,95.70
2018-03-04T03:24:43.781Z,92.00
2018-03-04T03:25:43.815Z,94.80
2018-03-04T03:26:43.806Z,94.00
2018-03-04T03:27:43.816Z,91.30
2018-03-04T03:28:43.825Z,91.70
2018-03-04T03:29:43.844Z,90.20
2018-03-04T03:30:43.850Z,94.10
2018-03-04T03:31:43.881Z,96.00
2018-03-04T03:32:43.873Z,98.60
2018-03-04T03:33:43.875Z,93.00
2018-03-04T03:34:43.886Z,93.50
2018-03-04T03:35:43.909Z,97.50
2018-03-04T03:36:43.920Z,98.80
2018-03-04T03:37:43.922Z,94.10
2018-03-04T03:38:43.924Z,93.10
2018-03-04T03:39:43.938Z,94.60
2018-03-04T03:40:43.955Z,90.80
2018-03-04T03:41:43.954Z,96.40
2018-03-04T03:42:43.973Z,93.30
2018-03-04T03:43:44.000Z,94.20
2018-03-04T03:44:43.996Z,92.90
2018-03-04T03:45:44.001Z,95.00
2018-03-04T03:46:44.017Z,92.30
2018-03-04T03:47:44.017Z,97.10
2018-03-04T03:48:44.030Z,102.20
2018-03-04T03:49:44.053Z,91.60
2018-03-04T03:50:44.080Z,93.00
2018-03-04T03:51:44.059Z,92.10
2018-03-04T03:52:44.071Z,94.90
2018-03-04T03:53:44.098Z,95.10
2018-03-04T03:54:44.102Z,93.80
2018-03-04T03:55:44.111Z,95.70
2018-03-04T03:56:44.116Z,96.50
2018-03-04T03:57:44.135Z,93.20
2018-03-04T03:58:44.152Z,92.00
2018-03-04T03:59:44.168Z,97.40
2018-03-04T04:00:44.168Z,98.40
2018-03-04T04:01:44.175Z,99.40
2018-03-04T04:02:44.192Z,95.90
2018-03-04T04:03:44.191Z,98.00
2018-03-04T04:04:44.196Z,96.90
2018-03-04T04:05:44.215Z,94.80
2018-03-04T04:06:44.219Z,96.80
2018-03-04T04:07:44.239Z,104.20
2018-03-04T04:08:44.262Z,96.20
2018-03-04T04:09:44.253Z,99.90
2018-03-04T04:10:44.265Z,95.40
2018-03-04T04:11:44.279Z,91.20
2018-03-04T04:12:44.281Z,96.10
2018-03-04T04:13:44.291Z,95.20
2018-03-04T04:14:44.304Z,96.20
2018-03-04T04:15:44.310Z,96.70
2018-03-04T04:16:44.322Z,101.20
2018-03-04T04:17:44.348Z,95.80
2018-03-04T04:18:44.349Z,94.50
2018-03-04T04:19:44.352Z,105.40
2018-03-04T04:20:44.374Z,97.00
2018-03-04T04:21:44.403Z,100.00
2018-03-04T04:22:44.387Z,103.60
2018-03-04T04:23:44.396Z,99.80
2018-03-04T04:24:44.410Z,96.70
2018-03-04T04:25:44.418Z,102.20
2018-03-04T04:26:44.430Z,103.70
2018-03-04T04:27:44.440Z,99.20
2018-03-04T04:28:44.471Z,98.80
2018-03-04T04:29:44.458Z,91.30
2018-03-04T04:30:44.480Z,99.50
2018-03-04T04:31:44.496Z,92.20
2018-03-04T04:32:44.488Z,100.90
2018-03-04T04:33:44.509Z,101.20
2018-03-04T04:34:44.510Z,109.00
2018-03-04T04:35:44.519Z,105.30
2018-03-04T04:36:44.531Z,103.40
2018-03-04T04:37:44.535Z,96.30
2018-03-04T04:38:44.557Z,97.80
2018-03-04T04:39:44.578Z,96.50
2018-03-04T04:40:44.570Z,94.60
2018-03-04T04:41:44.584Z,100.50
2018-03-04T04:42:44.606Z,99.30
2018-03-04T04:43:44.606Z,97.80
2018-03-04T04:44:44.628Z,100.30
2018-03-04T04:45:44.621Z,97.50
2018-03-04T04:46:44.639Z,101.50
2018-03-04T04:47:44.661Z,95.00
2018-03-04T04:48:44.652Z,95.60
2018-03-04T04:49:44.695Z,97.00
2018-03-04T04:50:44.678Z,104.70
2018-03-04T04:51:44.687Z,94.90
2018-03-04T04:52:44.696Z,104.00
2018-03-04T04:53:44.713Z,102.10
2018-03-04T04:54:44.733Z,98.20
2018-03-04T04:55:44.731Z,97.10
2018-03-04T04:56:44.741Z,103.10
2018-03-04T04:57:44.762Z,101.60
2018-03-04T04:58:44.769Z,108.70
2018-03-04T04:59:44.769Z,99.50
2018-03-04T05:00:44.788Z,98.50
2018-03-04T05:01:44.806Z,108.40
2018-03-04T05:02:44.801Z,100.80
2018-03-04T05:03:44.814Z,99.30
2018-03-04T05:04:44.824Z,99.80
2018-03-04T05:05:44.833Z,99.60
2018-03-04T05:06:44.861Z,97.50
2018-03-04T05:07:44.851Z,97.60
2018-03-04T05:08:44.897Z,97.70
2018-03-04T05:09:44.876Z,100.60
2018-03-04T05:10:44.886Z,100.80
2018-03-04T05:11:44.901Z,99.70
2018-03-04T05:12:44.910Z,96.50
2018-03-04T05:13:44.911Z,105.70
2018-03-04T05:14:44.939Z,106.60
2018-03-04T05:15:44.973Z,102.40
2018-03-04T05:16:44.949Z,101.20
2018-03-04T05:17:44.977Z,95.70
2018-03-04T05:18:44.963Z,94.90
2018-03-04T05:19:44.980Z,97.60
2018-03-04T05:20:44.991Z,101.60
2018-03-04T05:21:45.010Z,99.00
2018-03-04T05:22:45.012Z,100.20
2018-03-04T05:23:45.027Z,101.90
2018-03-04T05:24:45.045Z,96.80
2018-03-04T05:25:45.069Z,94.40
2018-03-04T05:26:45.055Z,101.20
2018-03-04T05:27:45.068Z,102.10
2018-03-04T05:28:45.075Z,96.90
2018-03-04T05:29:45.089Z,100.40
2018-03-04T05:30:45.091Z,103.10
2018-03-04T05:31:45.103Z,103.00
2018-03-04T05:32:45.119Z,107.10
2018-03-04T05:33:45.127Z,106.30
2018-03-04T05:34:45.136Z,101.50
2018-03-04T05:35:45.157Z,99.60
2018-03-04T05:36:45.162Z,101.70
2018-03-04T05:37:45.173Z,103.10
2018-03-04T05:38:45.183Z,104.90
2018-03-04T05:39:45.190Z,98.30
2018-03-04T05:40:45.202Z,105.00
2018-03-04T05:41:45.229Z,99.50
2018-03-04T05:42:45.220Z,107.80
2018-03-04T05:43:45.236Z,107.70
2018-03-04T05:44:45.255Z,108.10
2018-03-04T05:45:45.256Z,102.10
2018-03-04T05:46:45.267Z,102.60
2018-03-04T05:47:45.278Z,101.90
2018-03-04T05:48:45.325Z,102.90
2018-03-04T05:49:45.305Z,105.10
2018-03-04T05:50:45.314Z,98.80
2018-03-04T05:51:45.322Z,105.60
2018-03-04T05:52:45.331Z,103.60
2018-03-04T05:53:45.360Z,112.60
2018-03-04T05:54:45.349Z,105.10
2018-03-04T05:55:45.362Z,103.60
2018-03-04T05:56:45.375Z,110.10
2018-03-04T05:57:45.393Z,106.90
2018-03-04T05:58:45.394Z,109.30
2018-03-04T05:59:45.410Z,103.30
2018-03-04T06:00:45.447Z,101.80
2018-03-04T06:01:45.437Z,104.90
2018-03-04T06:02:45.441Z,103.80
2018-03-04T06:03:45.457Z,104.50
2018-03-04T06:04:45.472Z,105.60
2018-03-04T06:05:45.475Z,106.50
2018-03-04T06:06:45.500Z,106.80
2018-03-04T06:07:45.505Z,101.90
2018-03-04T06:08:45.505Z,104.70
2018-03-04T06:09:45.521Z,104.00
2018-03-04T06:10:45.524Z,99.80
2018-03-04T06:11:45.536Z,105.70
2018-03-04T06:12:45.549Z,112.70
2018-03-04T06:13:45.575Z,111.00
2018-03-04T06:14:45.567Z,106.00
2018-03-04T06:15:45.585Z,105.50
2018-03-04T06:16:45.585Z,104.60
2018-03-04T06:17:45.604Z,103.40
2018-03-04T06:18:45.607Z,106.40
2018-03-04T06:19:45.634Z,107.70
2018-03-04T06:20:45.639Z,104.60
2018-03-04T06:21:45.647Z,107.90
2018-03-04T06:22:45.664Z,110.10
2018-03-04T06:23:45.675Z,108.40
2018-03-04T06:24:45.688Z,99.70
2018-03-04T06:25:45.686Z,111.90
2018-03-04T06:26:45.703Z,111.90
2018-03-04T06:27:45.713Z,106.30
2018-03-04T06:28:45.737Z,112.40
2018-03-04T06:29:45.730Z,110.70
2018-03-04T06:30:45.744Z,110.40
2018-03-04T06:31:45.768Z,107.80
2018-03-04T06:32:45.774Z,102.50
2018-03-04T06:33:45.775Z,102.50
2018-03-04T06:34:45.800Z,108.10
2018-03-04T06:35:45.796Z,112.30
2018-03-04T06:36:45.808Z,108.70
2018-03-04T06:37:45.817Z,110.60
2018-03-04T06:38:45.833Z,102.20
2018-03-04T06:39:45.896Z,106.30
2018-03-04T06:40:45.860Z,107.60
2018-03-04T06:41:45.873Z,104.00
2018-03-04T06:42:45.903Z,107.40
2018-03-04T06:43:45.890Z,106.00
2018-03-04T06:44:45.901Z,104.30
2018-03-04T06:45:45.915Z,108.60
2018-03-04T06:46:45.929Z,110.00
2018-03-04T06:47:45.947Z,102.40
2018-03-04T06:48:45.946Z,105.20
2018-03-04T06:49:45.990Z,100.40
2018-03-04T06:50:45.987Z,118.70
2018-03-04T06:51:45.977Z,115.10
2018-03-04T06:52:45.998Z,111.80
2018-03-04T06:53:46.050Z,109.90
2018-03-04T06:54:46.021Z,111.10
2018-03-04T06:55:46.023Z,112.80
2018-03-04T06:56:46.039Z,107.00
2018-03-04T06:57:46.042Z,106.90
2018-03-04T06:58:46.061Z,106.90
2018-03-04T06:59:46.066Z,103.40
2018-03-04T07:00:46.080Z,105.30
2018-03-04T07:01:46.135Z,109.30
2018-03-04T07:02:46.120Z,106.80
2018-03-04T07:03:46.119Z,105.50
2018-03-04T07:04:46.129Z,104.70
2018-03-04T07:05:46.138Z,108.30
2018-03-04T07:06:46.183Z,112.20
2018-03-04T07:07:46.162Z,109.40
2018-03-04T07:08:46.172Z,106.70
2018-03-04T07:09:46.183Z,104.90
2018-03-04T07:10:46.240Z,101.40
2018-03-04T07:11:46.213Z,111.80
2018-03-04T07:12:46.230Z,104.80
2018-03-04T07:13:46.237Z,105.00
2018-03-04T07:14:46.255Z,102.20
2018-03-04T07:15:46.260Z,101.20
2018-03-04T07:16:46.264Z,107.80
2018-03-04T07:17:46.277Z,98.60
2018-03-04T07:18:46.298Z,110.90
2018-03-04T07:19:46.303Z,105.50
2018-03-04T07:20:46.311Z,230.50
2018-03-04T07:21:46.319Z,120.30
2018-03-04T07:22:46.331Z,120.80
2018-03-04T07:23:46.354Z,129.30
2018-03-04T07:24:46.380Z,140.50
2018-03-04T07:25:46.372Z,114.10
2018-03-04T07:26:46.386Z,106.30
2018-03-04T07:27:46.442Z,117.80
2018-03-04T07:28:46.402Z,123.00
2018-03-04T07:29:46.408Z,100.80
2018-03-04T07:30:46.427Z,104.90
2018-03-04T07:31:46.448Z,101.20
2018-03-04T07:32:46.453Z,105.60
2018-03-04T07:33:46.488Z,112.80
2018-03-04T07:34:46.470Z,112.00
2018-03-04T07:35:46.507Z,108.40
2018-03-04T07:36:46.495Z,111.20
2018-03-04T07:37:46.508Z,111.20
2018-03-04T07:38:46.542Z,107.90
2018-03-04T07:39:46.532Z,106.50
2018-03-04T07:40:46.554Z,110.60
2018-03-04T07:41:46.556Z,111.10
2018-03-04T07:42:46.563Z,112.10
2018-03-04T07:43:46.583Z,112.60
2018-03-04T07:44:46.613Z,109.40
2018-03-04T07:45:46.605Z,109.40
2018-03-04T07:46:46.615Z,107.40
2018-03-04T07:47:46.661Z,108.40
2018-03-04T07:48:46.642Z,106.40
2018-03-04T07:49:46.661Z,110.30
2018-03-04T07:50:46.671Z,107.20
2018-03-04T07:51:46.693Z,106.30
2018-03-04T07:52:46.700Z,108.60
2018-03-04T07:53:46.695Z,110.60
2018-03-04T07:54:46.768Z,109.30
2018-03-04T07:55:46.733Z,105.10
2018-03-04T07:56:46.739Z,109.80
2018-03-04T07:57:46.758Z,108.00
2018-03-04T07:58:46.757Z,103.20
2018-03-04T07:59:46.782Z,108.10
2018-03-04T08:00:46.802Z,111.30
2018-03-04T08:01:46.827Z,105.60
2018-03-04T08:02:46.822Z,106.00
2018-03-04T08:03:46.868Z,107.20
2018-03-04T08:04:46.846Z,113.80
2018-03-04T08:05:46.907Z,109.10
2018-03-04T08:06:46.884Z,107.90
2018-03-04T08:07:46.888Z,114.00
2018-03-04T08:08:46.885Z,109.30
2018-03-04T08:09:46.893Z,107.00
2018-03-04T08:10:46.916Z,112.00
2018-03-04T08:11:46.920Z,109.30
2018-03-04T08:12:46.933Z,111.30
2018-03-04T08:13:46.939Z,108.40
2018-03-04T08:14:46.955Z,113.90
2018-03-04T08:15:46.971Z,113.90
2018-03-04T08:16:46.978Z,107.90
2018-03-04T08:17:47.008Z,107.00
2018-03-04T08:18:47.002Z,108.20
2018-03-04T08:19:47.020Z,104.50
2018-03-04T08:20:47.036Z,111.30
2018-03-04T08:21:47.041Z,104.00
2018-03-04T08:22:47.062Z,105.90
2018-03-04T08:23:47.099Z,111.20
2018-03-04T08:24:47.087Z,107.00
2018-03-04T08:25:47.090Z,116.20
2018-03-04T08:26:47.105Z,135.80
2018-03-04T08:27:47.129Z,132.20
2018-03-04T08:28:47.178Z,115.10
2018-03-04T08:29:47.143Z,105.90
2018-03-04T08:30:47.152Z,115.30
2018-03-04T08:31:47.173Z,107.30
2018-03-04T08:32:47.180Z,111.20
2018-03-04T08:33:47.202Z,112.00
2018-03-04T08:34:47.214Z,114.50
2018-03-04T08:35:47.232Z,114.00
2018-03-04T08:36:47.231Z,110.90
2018-03-04T08:37:47.257Z,115.40
2018-03-04T08:38:47.274Z,109.80
2018-03-04T08:39:47.272Z,111.50
2018-03-04T08:40:47.284Z,117.10
2018-03-04T08:41:47.288Z,118.50
2018-03-04T08:42:47.304Z,109.30
2018-03-04T08:43:47.318Z,114.80
2018-03-04T08:44:47.341Z,112.80
2018-03-04T08:45:47.355Z,113.80
2018-03-04T08:46:47.354Z,111.00
2018-03-04T08:47:47.368Z,114.70
2018-03-04T08:48:47.380Z,114.20
2018-03-04T08:49:47.396Z,115.60
2018-03-04T08:50:47.447Z,115.20
2018-03-04T08:51:47.420Z,116.40
2018-03-04T08:52:47.428Z,112.80
2018-03-04T08:53:47.440Z,117.50
2018-03-04T08:54:47.455Z,111.20
2018-03-04T08:55:47.462Z,119.90
2018-03-04T08:56:47.477Z,116.30
2018-03-04T08:57:47.500Z,119.50
2018-03-04T08:58:47.543Z,120.30
2018-03-04T08:59:47.517Z,117.00
2018-03-04T09:00:47.534Z,114.90
2018-03-04T09:01:47.544Z,114.00
2018-03-04T09:02:47.556Z,119.60
2018-03-04T09:03:47.579Z,115.40
2018-03-04T09:04:47.596Z,112.10
2018-03-04T09:05:47.599Z,113.60
2018-03-04T09:06:47.620Z,115.10
2018-03-04T09:07:47.617Z,120.00
2018-03-04T09:08:47.644Z,114.30
2018-03-04T09:09:47.644Z,118.70
2018-03-04T09:10:47.668Z,113.40
2018-03-04T09:11:47.666Z,113.70
2018-03-04T09:12:47.680Z,112.20
2018-03-04T09:13:47.706Z,114.20
2018-03-04T09:14:47.755Z,112.80
2018-03-04T09:15:47.727Z,114.00
2018-03-04T09:16:47.734Z,116.60
2018-03-04T09:17:47.787Z,117.20
2018-03-04T09:18:47.763Z,112.90
2018-03-04T09:19:47.776Z,109.30
2018-03-04T09:20:47.783Z,115.50
2018-03-04T09:21:47.796Z,111.90
2018-03-04T09:22:47.809Z,114.50
2018-03-04T09:23:47.823Z,113.50
2018-03-04T09:24:47.837Z,111.30
2018-03-04T09:25:47.859Z,110.40
2018-03-04T09:26:47.860Z,113.70
2018-03-04T09:27:47.884Z,116.50
2018-03-04T09:28:47.895Z,115.50
2018-03-04T09:29:47.919Z,114.90
2018-03-04T09:30:47.918Z,109.20
2018-03-04T09:31:47.927Z,108.00
2018-03-04T09:32:47.932Z,108.70
2018-03-04T09:33:47.950Z,113.30
2018-03-04T09:34:47.972Z,117.90
2018-03-04T09:35:47.987Z,112.10
2018-03-04T09:36:47.999Z,111.70
2018-03-04T09:37:48.015Z,112.20
2018-03-04T09:38:48.031Z,111.90
2018-03-04T09:39:48.026Z,117.30
2018-03-04T09:40:48.045Z,108.60
2018-03-04T09:41:48.056Z,114.90
2018-03-04T09:42:48.068Z,109.80
2018-03-04T09:43:48.100Z,112.10
2018-03-04T09:44:48.102Z,109.20
2018-03-04T09:45:48.103Z,113.80
2018-03-04T09:46:48.120Z,116.00
2018-03-04T09:47:48.140Z,112.20
2018-03-04T09:48:48.156Z,113.40
2018-03-04T09:49:48.165Z,119.20
2018-03-04T09:50:48.172Z,109.80
2018-03-04T09:51:48.186Z,118.30
2018-03-04T09:52:48.199Z,115.50
2018-03-04T09:53:48.214Z,134.80
2018-03-04T09:54:48.227Z,127.30
2018-03-04T09:55:48.240Z,121.30
2018-03-04T09:56:48.280Z,116.30
2018-03-04T09:57:48.259Z,117.20
2018-03-04T09:58:48.284Z,117.30
2018-03-04T09:59:48.285Z,112.80
2018-03-04T10:00:48.299Z,111.90
2018-03-04T10:01:48.311Z,116.30
2018-03-04T10:02:48.338Z,115.10
2018-03-04T10:03:48.335Z,115.30
2018-03-04T10:04:48.351Z,117.00
2018-03-04T10:05:48.357Z,115.00
2018-03-04T10:06:48.375Z,113.50
2018-03-04T10:07:48.398Z,109.90
2018-03-04T10:08:48.434Z,114.80
2018-03-04T10:09:48.415Z,115.40
2018-03-04T10:10:48.440Z,122.10
2018-03-04T10:11:48.444Z,119.80
2018-03-04T10:12:48.461Z,113.90
2018-03-04T10:13:48.475Z,120.30
2018-03-04T10:14:48.492Z,117.10
2018-03-04T10:15:48.508Z,119.60
2018-03-04T10:16:48.505Z,113.00
2018-03-04T10:17:48.557Z,114.40
2018-03-04T10:18:48.575Z,113.90
2018-03-04T10:19:48.556Z,113.00
2018-03-04T10:20:48.575Z,113.00
2018-03-04T10:21:48.586Z,115.50
2018-03-04T10:22:48.595Z,114.10
2018-03-04T10:23:48.614Z,116.70
2018-03-04T10:24:48.623Z,114.00
2018-03-04T10:25:48.689Z,116.00
2018-03-04T10:26:48.649Z,112.50
2018-03-04T10:27:48.674Z,117.30
2018-03-04T10:28:48.720Z,114.90
2018-03-04T10:29:48.699Z,118.30
2018-03-04T10:30:48.711Z,120.80
2018-03-04T10:31:48.749Z,113.60
2018-03-04T10:32:48.741Z,110.00
2018-03-04T10:33:48.753Z,121.10
2018-03-04T10:34:48.786Z,115.30
2018-03-04T10:35:48.792Z,115.40
2018-03-04T10:36:48.831Z,115.60
2018-03-04T10:37:48.811Z,114.50
2018-03-04T10:38:48.827Z,116.00
2018-03-04T10:39:48.844Z,110.40
2018-03-04T10:40:48.876Z,114.80
2018-03-04T10:41:48.872Z,117.00
2018-03-04T10:42:48.890Z,114.90
2018-03-04T10:43:48.941Z,110.00
2018-03-04T10:44:48.913Z,109.10
2018-03-04T10:45:48.928Z,115.80
2018-03-04T10:46:48.957Z,113.90
2018-03-04T10:47:48.957Z,110.20
2018-03-04T10:48:48.990Z,114.00
2018-03-04T10:49:48.992Z,113.70
2018-03-04T10:50:49.004Z,117.80
2018-03-04T10:51:49.009Z,117.50
2018-03-04T10:52:49.052Z,110.70
2018-03-04T10:53:49.045Z,110.20
2018-03-04T10:54:49.059Z,122.20
2018-03-04T10:55:49.081Z,116.80
2018-03-04T10:56:49.095Z,115.80
2018-03-04T10:57:49.114Z,112.60
2018-03-04T10:58:49.120Z,117.70
2018-03-04T10:59:49.129Z,112.90
2018-03-04T11:00:49.160Z,114.80
2018-03-04T11:01:49.165Z,113.50
2018-03-04T11:02:49.177Z,116.20
2018-03-04T11:03:49.189Z,117.50
2018-03-04T11:04:49.209Z,116.50
2018-03-04T11:05:49.216Z,119.40
2018-03-04T11:06:49.234Z,113.10
2018-03-04T11:07:49.247Z,118.20
2018-03-04T11:08:49.268Z,112.60
2018-03-04T11:09:49.290Z,115.70
2018-03-04T11:10:49.295Z,116.30
2018-03-04T11:11:49.313Z,118.40
2018-03-04T11:12:49.333Z,116.80
2018-03-04T11:13:49.342Z,113.20
2018-03-04T11:14:49.356Z,117.20
2018-03-04T11:15:49.368Z,114.70
2018-03-04T11:16:49.384Z,121.50
2018-03-04T11:17:49.400Z,112.70
2018-03-04T11:18:49.412Z,114.80
2018-03-04T11:19:49.437Z,120.70
2018-03-04T11:20:49.451Z,116.40
2018-03-04T11:21:49.455Z,111.20
2018-03-04T11:22:49.477Z,116.90
2018-03-04T11:23:49.486Z,121.80
2018-03-04T11:24:49.499Z,120.10
2018-03-04T11:25:49.523Z,118.30
2018-03-04T11:26:49.525Z,119.60
2018-03-04T11:27:49.541Z,127.40
2018-03-04T11:28:49.577Z,114.60
2018-03-04T11:29:49.591Z,120.60
2018-03-04T11:30:49.582Z,121.70
2018-03-04T11:31:49.602Z,121.50
2018-03-04T11:32:49.619Z,122.10
2018-03-04T11:33:49.645Z,111.20
2018-03-04T11:34:49.653Z,115.70
2018-03-04T11:35:49.686Z,108.50
2018-03-04T11:36:49.677Z,114.80
2018-03-04T11:37:49.693Z,105.50
2018-03-04T11:38:49.709Z,115.60
2018-03-04T11:39:49.726Z,106.70
2018-03-04T11:40:49.744Z,112.80
2018-03-04T11:41:49.772Z,106.80
2018-03-04T11:42:49.781Z,109.80
2018-03-04T11:43:49.797Z,112.10
2018-03-04T11:44:49.805Z,110.00
2018-03-04T11:45:49.820Z,110.40
2018-03-04T11:46:49.833Z,110.20
2018-03-04T11:47:49.871Z,111.60
2018-03-04T11:48:49.862Z,109.50
2018-03-04T11:49:49.879Z,112.70
2018-03-04T11:50:49.895Z,110.70
2018-03-04T11:51:49.915Z,112.40
2018-03-04T11:52:49.940Z,111.00
2018-03-04T11:53:49.944Z,108.10
2018-03-04T11:54:49.971Z,104.60
2018-03-04T11:55:49.991Z,108.50
2018-03-04T11:56:49.987Z,112.00
2018-03-04T11:57:50.021Z,112.10
2018-03-04T11:58:50.048Z,107.30
2018-03-04T11:59:50.049Z,96.20
2018-03-04T12:00:50.078Z,99.70
2018-03-04T12:01:50.075Z,101.80
2018-03-04T12:02:50.095Z,102.90
2018-03-04T12:03:50.117Z,99.60
2018-03-04T12:04:50.119Z,100.70
2018-03-04T12:05:50.139Z,100.10
2018-03-04T12:06:50.206Z,99.10
2018-03-04T12:07:50.175Z,100.00
2018-03-04T12:08:50.182Z,98.50
2018-03-04T12:09:50.209Z,99.80
2018-03-04T12:10:50.211Z,95.40
2018-03-04T12:11:50.235Z,98.90
2018-03-04T12:12:50.252Z,98.90
2018-03-04T12:13:50.257Z,94.50
2018-03-04T12:14:50.281Z,100.60
2018-03-04T12:15:50.319Z,101.60
2018-03-04T12:16:50.312Z,105.50
2018-03-04T12:17:50.337Z,105.30
2018-03-04T12:18:50.335Z,93.80
2018-03-04T12:19:50.349Z,96.00
2018-03-04T12:20:50.385Z,102.70
2018-03-04T12:21:50.393Z,100.90
2018-03-04T12:22:50.404Z,98.90
2018-03-04T12:23:50.414Z,102.20
2018-03-04T12:24:50.435Z,98.90
2018-03-04T12:25:50.453Z,99.60
2018-03-04T12:26:50.512Z,102.20
2018-03-04T12:27:50.477Z,102.30
2018-03-04T12:28:50.490Z,103.10
2018-03-04T12:29:50.517Z,96.00
2018-03-04T12:30:50.529Z,97.00
2018-03-04T12:31:50.539Z,99.00
2018-03-04T12:32:50.592Z,94.00
2018-03-04T12:33:50.568Z,97.20
2018-03-04T12:34:50.582Z,95.40
2018-03-04T12:35:50.606Z,94.70
2018-03-04T12:36:50.620Z,95.10
2018-03-04T12:37:50.635Z,98.20
2018-03-04T12:38:50.650Z,98.70